Time;durP1;ratioP1;P1;durP2;ratioP2;P2;SDS_P1;SDS_P2;PMS_P1;PMS_P2;Temp;Humidity;BMP_temperature;BMP_pressure;BME280_temperature;BME280_humidity;BME280_pressure;Samples;Min_cycle;Max_cycle;Signal;HPM_P1;HPM_P2
2022/05/19 00:00:19;;;;;;;10.10;4.65;;;;;;;18.58;72.00;101396.81;5982414;28;20291;-67
2022/05/19 00:03:14;;;;;;;9.50;4.80;;;;;;;18.56;71.90;101386.25;5983545;28;20039;-67
2022/05/19 00:06:11;;;;;;;10.18;4.70;;;;;;;18.56;71.85;101390.78;5984425;28;20281;-67
2022/05/19 00:09:07;;;;;;;8.25;4.88;;;;;;;18.48;72.28;101383.59;5979130;28;20035;-67
2022/05/19 00:12:11;;;;;;;9.77;4.97;;;;;;;18.42;72.25;101374.41;5973674;28;20047;-68
2022/05/19 00:15:07;;;;;;;8.60;5.00;;;;;;;18.41;72.10;101379.94;5982083;29;20407;-67
2022/05/19 00:18:02;;;;;;;7.65;5.60;;;;;;;18.46;72.01;101380.25;5988478;28;20074;-67
2022/05/19 00:20:58;;;;;;;10.35;5.15;;;;;;;18.45;72.06;101383.97;5986818;28;20494;-68
2022/05/19 00:23:53;;;;;;;10.35;5.28;;;;;;;18.43;72.05;101381.44;5989094;28;20039;-67
2022/05/19 00:26:49;;;;;;;7.43;5.18;;;;;;;18.46;71.69;101380.25;5984906;28;20042;-67
2022/05/19 00:29:44;;;;;;;9.18;5.47;;;;;;;18.46;71.83;101374.88;5983653;28;20039;-67
2022/05/19 00:32:40;;;;;;;8.20;5.13;;;;;;;18.34;72.04;101362.91;5983282;28;20075;-67
2022/05/19 00:35:37;;;;;;;8.73;5.28;;;;;;;18.34;72.04;101365.59;5994383;28;20114;-68
2022/05/19 00:38:32;;;;;;;6.68;4.30;;;;;;;18.35;71.95;101362.72;5980615;28;20047;-67
2022/05/19 00:41:27;;;;;;;9.73;5.17;;;;;;;18.32;72.20;101362.22;5982922;28;20194;-67
2022/05/19 00:44:23;;;;;;;7.93;5.13;;;;;;;18.29;72.21;101363.41;5981986;28;20046;-68
2022/05/19 00:47:23;;;;;;;10.03;5.47;;;;;;;18.21;72.70;101358.13;5983041;28;20035;-67
2022/05/19 00:50:25;;;;;;;10.38;5.55;;;;;;;18.20;72.60;101366.38;5981420;28;20039;-67
2022/05/19 00:53:30;;;;;;;12.95;5.45;;;;;;;18.15;72.97;101363.38;5996223;28;20062;-68
2022/05/19 00:56:35;;;;;;;8.70;5.45;;;;;;;18.16;73.04;101363.19;5980890;28;20542;-67
2022/05/19 00:59:37;;;;;;;11.35;5.40;;;;;;;18.10;73.10;101360.41;5980877;28;20047;-67
2022/05/19 01:02:39;;;;;;;12.70;6.47;;;;;;;18.07;73.23;101358.06;5981256;28;20376;-67
2022/05/19 01:05:34;;;;;;;9.63;5.47;;;;;;;18.07;72.86;101358.06;5991475;28;20038;-67
2022/05/19 01:08:35;;;;;;;8.73;5.50;;;;;;;18.04;73.16;101355.75;5985296;28;20046;-67
2022/05/19 01:11:31;;;;;;;16.92;6.22;;;;;;;18.01;72.91;101351.56;5981009;28;20035;-67
2022/05/19 01:14:26;;;;;;;10.50;6.20;;;;;;;18.01;73.02;101354.25;5982619;28;20047;-67
2022/05/19 01:17:22;;;;;;;9.10;5.67;;;;;;;18.05;72.80;101354.72;5984482;28;20395;-67
2022/05/19 01:20:23;;;;;;;9.25;6.45;;;;;;;17.99;73.23;101352.78;5988839;28;20041;-67
2022/05/19 01:23:40;;;;;;;9.27;5.60;;;;;;;17.98;73.03;101351.09;5983357;28;20484;-67
2022/05/19 01:26:45;;;;;;;8.95;6.03;;;;;;;17.94;73.14;101350.59;5981265;28;20043;-67
2022/05/19 01:29:41;;;;;;;10.13;6.18;;;;;;;17.85;73.34;101349.00;5969099;28;20487;-67
2022/05/19 01:32:36;;;;;;;10.40;5.80;;;;;;;17.82;73.51;101350.19;5982989;28;20036;-67
2022/05/19 01:35:33;;;;;;;10.90;6.40;;;;;;;17.76;73.55;101353.56;5985119;28;20024;-67
2022/05/19 01:38:32;;;;;;;10.68;6.18;;;;;;;17.76;73.77;101361.63;5983655;28;20118;-67
2022/05/19 01:41:46;;;;;;;13.68;6.88;;;;;;;17.78;74.11;101356.91;5980226;28;20027;-67
2022/05/19 01:44:58;;;;;;;12.25;6.85;;;;;;;17.75;73.80;101348.38;5982087;28;20054;-68
2022/05/19 01:48:02;;;;;;;12.10;6.72;;;;;;;17.69;74.17;101352.59;5989415;28;20039;-68
2022/05/19 01:51:00;;;;;;;10.85;6.43;;;;;;;17.69;74.06;101352.59;5984246;28;20028;-67
2022/05/19 01:54:05;;;;;;;15.38;6.90;;;;;;;17.66;73.86;101342.25;5985244;28;20442;-67
2022/05/19 01:57:06;;;;;;;14.27;7.00;;;;;;;17.65;74.35;101347.78;5980751;28;20039;-67
2022/05/19 02:00:07;;;;;;;10.20;6.60;;;;;;;17.64;74.42;101346.94;5981318;28;20047;-67
2022/05/19 02:03:27;;;;;;;10.77;6.70;;;;;;;17.58;74.57;101347.63;5978439;28;20039;-67
2022/05/19 02:06:37;;;;;;;11.57;6.15;;;;;;;17.59;74.33;101348.47;5981492;28;20066;-67
2022/05/19 02:09:36;;;;;;;12.18;7.15;;;;;;;17.50;74.32;101339.59;5992184;28;20463;-68
2022/05/19 02:12:33;;;;;;;11.25;6.32;;;;;;;17.50;74.40;101342.28;5980876;28;20039;-67
2022/05/19 02:15:32;;;;;;;12.02;6.43;;;;;;;17.41;74.46;101337.97;5978804;28;20045;-67
2022/05/19 02:18:28;;;;;;;13.27;6.22;;;;;;;17.38;74.61;101330.28;5984003;28;20030;-67
2022/05/19 02:21:23;;;;;;;14.80;6.18;;;;;;;17.42;74.65;101341.50;5981073;28;20495;-67
2022/05/19 02:24:20;;;;;;;10.32;6.72;;;;;;;17.39;74.32;101331.13;5981130;28;20038;-67
2022/05/19 02:27:22;;;;;;;12.20;6.47;;;;;;;17.32;74.58;101336.34;5981349;28;20043;-67
2022/05/19 02:30:24;;;;;;;9.95;6.07;;;;;;;17.30;74.74;101332.16;5980280;28;20042;-67
2022/05/19 02:33:19;;;;;;;13.60;6.07;;;;;;;17.33;74.59;101342.53;5980784;28;20050;-67
2022/05/19 02:36:14;;;;;;;11.37;6.77;;;;;;;17.26;74.81;101339.72;5980258;28;20391;-68
2022/05/19 02:39:10;;;;;;;12.47;6.37;;;;;;;17.23;74.80;101342.72;5986273;28;20039;-67
2022/05/19 02:42:05;;;;;;;11.07;6.55;;;;;;;17.21;75.20;101334.88;5984083;28;20035;-67
2022/05/19 02:45:00;;;;;;;13.32;6.57;;;;;;;17.24;74.71;101333.69;5980606;28;20534;-67
2022/05/19 02:47:56;;;;;;;11.90;6.47;;;;;;;17.23;74.56;101327.47;5987422;28;20030;-67
2022/05/19 02:50:52;;;;;;;11.15;6.47;;;;;;;17.18;75.07;101326.34;5979961;28;20194;-67
2022/05/19 02:53:47;;;;;;;12.60;6.13;;;;;;;17.17;74.96;101336.25;5987275;28;20027;-67
2022/05/19 02:56:42;;;;;;;12.17;6.13;;;;;;;17.07;75.18;101326.72;5983848;28;20482;-67
2022/05/19 02:59:38;;;;;;;12.30;6.20;;;;;;;17.08;75.63;101334.59;5982194;28;20031;-67
2022/05/19 03:02:33;;;;;;;12.00;6.33;;;;;;;17.05;75.59;101328.72;5988090;28;20106;-67
2022/05/19 03:05:30;;;;;;;12.03;6.33;;;;;;;16.94;75.79;101327.25;5979561;28;20093;-67
2022/05/19 03:08:26;;;;;;;13.25;6.15;;;;;;;16.84;76.02;101331.16;5979139;28;20039;-67
2022/05/19 03:11:21;;;;;;;12.93;6.93;;;;;;;16.69;76.56;101314.13;5978852;28;20583;-67
2022/05/19 03:14:16;;;;;;;10.60;6.60;;;;;;;16.72;76.72;101317.28;5980230;28;20037;-67
2022/05/19 03:17:12;;;;;;;18.57;7.50;;;;;;;16.71;76.24;101320.13;5979837;28;20034;-67
2022/05/19 03:20:08;;;;;;;16.73;6.97;;;;;;;16.76;76.35;101326.66;5987672;28;20082;-67
2022/05/19 03:23:04;;;;;;;12.55;7.50;;;;;;;16.70;75.97;101323.81;5979991;28;20031;-67
2022/05/19 03:25:59;;;;;;;13.50;7.03;;;;;;;16.62;76.68;101322.84;5979104;28;20027;-67
2022/05/19 03:28:55;;;;;;;15.60;7.60;;;;;;;16.64;76.43;101326.16;5994330;28;20031;-67
2022/05/19 03:31:52;;;;;;;13.10;7.00;;;;;;;16.67;76.82;101323.16;5980358;28;20043;-67
2022/05/19 03:34:47;;;;;;;11.25;6.60;;;;;;;16.67;76.62;101317.78;5979020;28;20047;-67
2022/05/19 03:37:43;;;;;;;14.73;8.67;;;;;;;16.64;76.70;101320.81;5987440;28;20043;-67
2022/05/19 03:40:38;;;;;;;15.75;6.60;;;;;;;16.59;76.95;101315.13;5978728;28;20039;-67
2022/05/19 03:43:33;;;;;;;17.60;7.90;;;;;;;16.58;77.04;101300.06;5979880;28;20046;-67
2022/05/19 03:46:29;;;;;;;14.67;6.93;;;;;;;16.61;76.38;101315.78;5979748;28;20468;-67
2022/05/19 03:49:24;;;;;;;16.73;7.40;;;;;;;16.64;76.79;101325.31;5983677;28;20027;-68
2022/05/19 03:52:19;;;;;;;15.30;7.53;;;;;;;16.79;76.42;101322.78;5978342;28;20044;-67
2022/05/19 03:55:15;;;;;;;13.55;6.47;;;;;;;16.83;75.59;101318.75;5978320;28;20058;-67
2022/05/19 03:58:10;;;;;;;13.65;6.65;;;;;;;16.95;75.04;101325.44;5980062;28;20039;-66
2022/05/19 04:01:05;;;;;;;13.00;6.63;;;;;;;16.95;74.77;101317.38;5986130;28;20046;-67
2022/05/19 04:04:01;;;;;;;11.27;6.22;;;;;;;17.09;74.31;101330.06;5992654;28;20105;-67
2022/05/19 04:06:57;;;;;;;14.30;6.80;;;;;;;17.20;73.68;101321.66;5984762;28;20462;-67
2022/05/19 04:09:52;;;;;;;9.75;5.88;;;;;;;17.40;73.21;101325.56;5979570;28;20082;-66
2022/05/19 04:12:47;;;;;;;11.40;5.40;;;;;;;17.55;72.33;101329.22;5982033;28;20067;-67
2022/05/19 04:15:43;;;;;;;8.93;5.23;;;;;;;17.68;71.91;101326.78;5979884;28;20633;-67
2022/05/19 04:18:38;;;;;;;16.25;6.20;;;;;;;17.85;70.81;101322.16;5978997;28;20067;-67
2022/05/19 04:21:33;;;;;;;9.33;5.03;;;;;;;18.02;70.43;101322.88;5982997;28;20075;-67
2022/05/19 04:24:29;;;;;;;12.17;5.37;;;;;;;18.09;70.52;101329.19;5983286;28;20039;-66
2022/05/19 04:27:24;;;;;;;13.60;5.30;;;;;;;18.33;69.02;101323.63;5993926;28;20043;-67
2022/05/19 04:30:19;;;;;;;13.57;4.83;;;;;;;18.60;67.91;101332.97;5981921;28;20035;-67
2022/05/19 04:33:15;;;;;;;12.10;4.67;;;;;;;18.70;67.18;101326.31;5987439;28;20086;-67
2022/05/19 04:36:10;;;;;;;11.23;4.80;;;;;;;18.81;66.65;101316.94;5988742;28;20290;-67
2022/05/19 04:39:05;;;;;;;10.17;5.00;;;;;;;18.77;66.63;101312.97;5985404;28;20045;-68
2022/05/19 04:42:06;;;;;;;11.90;5.40;;;;;;;18.89;66.41;101323.06;5979971;28;20282;-67
2022/05/19 04:45:02;;;;;;;15.38;5.68;;;;;;;19.09;65.08;101322.53;5985451;28;20035;-67
2022/05/19 04:47:57;;;;;;;13.90;4.93;;;;;;;19.29;64.35;101337.91;5994163;28;20479;-67
2022/05/19 04:50:54;;;;;;;15.33;5.00;;;;;;;19.33;64.43;101335.66;5982628;28;20050;-67
2022/05/19 04:53:50;;;;;;;11.20;4.70;;;;;;;19.47;63.43;101348.28;5987308;28;20035;-67
2022/05/19 04:56:45;;;;;;;9.70;3.70;;;;;;;19.46;63.41;101338.53;5986148;28;20067;-67
2022/05/19 04:59:41;;;;;;;5.37;3.20;;;;;;;19.56;63.06;101355.25;5983372;28;20086;-67
2022/05/19 05:02:37;;;;;;;7.35;3.75;;;;;;;19.56;63.16;101339.09;5982596;28;20566;-67
2022/05/19 05:05:33;;;;;;;7.30;3.50;;;;;;;19.44;63.52;101349.50;5983149;28;20027;-67
2022/05/19 05:08:28;;;;;;;6.10;3.80;;;;;;;19.42;63.66;101350.72;5982949;28;20364;-67
2022/05/19 05:11:24;;;;;;;8.07;3.50;;;;;;;19.41;63.59;101343.66;5981286;28;20086;-67
2022/05/19 05:14:20;;;;;;;5.55;3.75;;;;;;;19.50;63.63;101342.53;5993185;28;20090;-66
2022/05/19 05:17:16;;;;;;;6.30;3.63;;;;;;;19.63;62.86;101348.06;5978452;28;20575;-67
2022/05/19 05:20:12;;;;;;;8.05;3.42;;;;;;;19.90;62.20;101339.25;5987189;28;20170;-68
2022/05/19 05:23:08;;;;;;;5.80;3.22;;;;;;;20.15;61.63;101345.94;5988848;28;20504;-68
2022/05/19 05:26:05;;;;;;;4.55;3.13;;;;;;;20.54;60.62;101341.97;5985323;28;20043;-67
2022/05/19 05:29:00;;;;;;;5.75;2.90;;;;;;;20.88;59.16;101344.69;5991130;28;20027;-67
2022/05/19 05:31:56;;;;;;;7.47;3.73;;;;;;;21.48;57.29;101351.25;5989097;28;20110;-67
2022/05/19 05:34:51;;;;;;;6.60;3.70;;;;;;;21.52;56.48;101347.13;5981282;28;20353;-67
2022/05/19 05:37:47;;;;;;;8.82;3.30;;;;;;;21.55;56.73;101357.53;5983769;28;20439;-67
2022/05/19 05:40:43;;;;;;;8.38;3.55;;;;;;;21.65;56.52;101357.97;5980604;28;20039;-67
2022/05/19 05:43:39;;;;;;;9.23;3.20;;;;;;;21.93;55.91;101358.72;5982776;28;20486;-67
2022/05/19 05:46:34;;;;;;;4.38;3.08;;;;;;;21.79;55.82;101360.53;5989053;28;20118;-68
2022/05/19 05:49:30;;;;;;;6.85;3.40;;;;;;;21.78;56.10;101350.75;5984218;28;20090;-67
2022/05/19 05:52:25;;;;;;;6.32;2.65;;;;;;;21.71;56.69;101358.00;5980757;28;20074;-66
2022/05/19 05:55:21;;;;;;;3.83;2.95;;;;;;;22.07;54.92;101355.00;5980962;28;20057;-67
2022/05/19 05:58:16;;;;;;;5.20;3.03;;;;;;;22.18;55.16;101357.09;5983629;28;20043;-67
2022/05/19 06:01:14;;;;;;;4.60;3.00;;;;;;;22.20;54.74;101351.50;5980035;28;20050;-67
2022/05/19 06:04:09;;;;;;;5.78;2.95;;;;;;;22.61;54.47;101356.72;5981861;28;20289;-67
2022/05/19 06:07:05;;;;;;;6.43;3.10;;;;;;;21.93;55.14;101361.44;5984701;28;20035;-67
2022/05/19 06:10:00;;;;;;;5.32;2.88;;;;;;;22.62;54.46;101358.34;5980237;28;20106;-67
2022/05/19 06:12:56;;;;;;;5.37;2.63;;;;;;;22.54;54.20;101354.81;5981778;28;20035;-67
2022/05/19 06:15:52;;;;;;;6.85;3.65;;;;;;;22.40;54.22;101358.56;5986915;28;20046;-67
2022/05/19 06:18:47;;;;;;;7.40;3.10;;;;;;;22.24;55.14;101353.56;5984851;28;20068;-67
2022/05/19 06:21:43;;;;;;;5.90;3.10;;;;;;;22.62;54.16;101356.47;5980458;28;20422;-68
2022/05/19 06:24:38;;;;;;;5.83;2.73;;;;;;;22.50;54.49;101363.56;5989326;28;20046;-68
2022/05/19 06:27:33;;;;;;;5.20;2.80;;;;;;;22.74;54.36;101371.09;5981671;28;20027;-67
2022/05/19 06:30:30;;;;;;;5.57;2.90;;;;;;;23.16;52.68;101360.78;5979542;28;20122;-67
2022/05/19 06:33:29;;;;;;;5.97;3.05;;;;;;;23.02;53.08;101362.69;5973285;28;20113;-68
2022/05/19 06:36:25;;;;;;;5.28;2.83;;;;;;;23.10;53.09;101365.19;5991976;28;20092;-67
2022/05/19 06:39:20;;;;;;;5.60;2.80;;;;;;;23.35;52.33;101362.59;5979924;28;20039;-67
2022/05/19 06:42:16;;;;;;;5.30;3.50;;;;;;;23.96;50.93;101369.25;5979801;28;20415;-67
2022/05/19 06:45:13;;;;;;;6.83;3.03;;;;;;;23.97;50.10;101368.16;5979717;28;20047;-67
2022/05/19 06:48:09;;;;;;;6.22;2.90;;;;;;;24.09;50.30;101362.91;5987008;28;20035;-67
2022/05/19 06:51:04;;;;;;;5.28;3.03;;;;;;;23.86;49.72;101365.34;5988781;28;20035;-67
2022/05/19 06:53:59;;;;;;;5.03;2.80;;;;;;;23.75;48.81;101366.03;5985274;28;20034;-67
2022/05/19 06:56:55;;;;;;;6.13;2.80;;;;;;;24.01;48.33;101371.28;5992503;28;20411;-68
2022/05/19 06:59:50;;;;;;;5.07;2.80;;;;;;;24.02;48.61;101360.25;5986260;28;20578;-67
2022/05/19 07:02:48;;;;;;;5.53;2.80;;;;;;;23.83;48.97;101355.78;5979747;28;20086;-67
2022/05/19 07:05:44;;;;;;;5.13;2.90;;;;;;;24.18;47.35;101353.50;5979528;28;20039;-68
2022/05/19 07:08:40;;;;;;;3.73;2.43;;;;;;;24.44;47.84;101358.69;5979192;28;20059;-68
2022/05/19 07:11:35;;;;;;;5.78;2.95;;;;;;;24.22;47.41;101362.81;5978911;28;20039;-68
2022/05/19 07:14:32;;;;;;;3.92;2.80;;;;;;;24.73;47.18;101360.72;5980357;28;20031;-67
2022/05/19 07:17:27;;;;;;;6.50;2.67;;;;;;;25.08;46.25;101352.91;5981923;28;20515;-67
2022/05/19 07:23:36;;;;;;;5.38;2.72;;;;;;;25.78;43.98;101362.31;5970663;29;20054;-67
2022/05/19 07:26:31;;;;;;;6.33;3.17;;;;;;;25.31;44.06;101354.94;5981022;28;20035;-67
2022/05/19 07:29:27;;;;;;;4.73;2.73;;;;;;;25.12;45.24;101347.84;5989211;28;20043;-67
2022/05/19 07:32:22;;;;;;;5.15;2.80;;;;;;;25.64;43.47;101349.13;5988481;28;20110;-67
2022/05/19 07:35:18;;;;;;;5.43;2.80;;;;;;;24.84;44.37;101348.34;5978991;28;20130;-67
2022/05/19 07:38:14;;;;;;;5.32;2.78;;;;;;;24.49;45.26;101331.75;5990261;28;20098;-67
2022/05/19 07:41:09;;;;;;;7.13;2.95;;;;;;;24.66;44.49;101335.56;5978539;28;20058;-67
2022/05/19 07:44:06;;;;;;;3.40;2.83;;;;;;;24.12;46.20;101343.50;5979686;28;20043;-67
2022/05/19 07:47:01;;;;;;;4.40;2.92;;;;;;;24.45;45.77;101332.41;5975815;28;20031;-67
2022/05/19 07:49:57;;;;;;;6.70;3.20;;;;;;;24.32;46.41;101335.25;5986908;28;20390;-67
2022/05/19 07:52:53;;;;;;;6.72;2.70;;;;;;;24.67;44.89;101331.81;5978209;28;20278;-67
2022/05/19 07:55:48;;;;;;;6.63;3.08;;;;;;;24.41;45.55;101321.16;5982365;28;20510;-67
2022/05/19 07:58:44;;;;;;;6.28;2.80;;;;;;;24.82;45.31;101318.72;5983718;28;20045;-67
2022/05/19 08:01:40;;;;;;;5.32;2.63;;;;;;;24.70;45.35;101323.22;5985174;28;20035;-67
2022/05/19 08:04:36;;;;;;;5.72;2.60;;;;;;;24.95;43.90;101314.22;5982574;28;20062;-68
2022/05/19 08:07:31;;;;;;;4.43;2.50;;;;;;;24.93;43.79;101313.59;5998753;28;20047;-67
2022/05/19 08:10:26;;;;;;;4.80;2.60;;;;;;;25.06;42.91;101302.63;5993798;28;20061;-67
2022/05/19 08:16:36;;;;;;;6.32;2.85;;;;;;;24.42;44.05;101317.41;5977651;28;20027;-67
2022/05/19 08:19:31;;;;;;;7.53;2.58;;;;;;;24.48;44.47;101299.44;5982815;28;20031;-67
2022/05/19 08:22:26;;;;;;;5.13;2.50;;;;;;;25.11;43.42;101302.75;5982417;28;20035;-67
2022/05/19 08:25:26;;;;;;;4.60;2.90;;;;;;;25.28;44.15;101301.91;5983089;28;20039;-67
2022/05/19 08:28:28;;;;;;;3.65;2.58;;;;;;;25.45;43.67;101308.38;5982876;28;20072;-68
2022/05/19 08:31:24;;;;;;;4.10;2.67;;;;;;;25.53;42.28;101303.72;5982047;28;20027;-67
2022/05/19 08:34:20;;;;;;;6.03;2.88;;;;;;;25.03;43.93;101301.16;5983028;28;20062;-67
2022/05/19 08:37:15;;;;;;;7.70;3.60;;;;;;;24.67;45.37;101293.81;5983273;28;20030;-67
2022/05/19 08:40:11;;;;;;;4.43;2.93;;;;;;;25.07;44.99;101304.25;5988982;28;20093;-67
2022/05/19 08:43:06;;;;;;;3.90;2.80;;;;;;;25.10;43.74;101303.81;5981566;28;20038;-69
2022/05/19 08:46:03;;;;;;;6.18;2.60;;;;;;;25.15;43.59;101306.66;5985233;28;20049;-67
2022/05/19 08:49:07;;;;;;;5.03;2.60;;;;;;;25.41;42.59;101312.59;5982948;28;20634;-68
2022/05/19 08:52:14;;;;;;;3.58;2.40;;;;;;;25.77;42.11;101305.44;5988623;28;20127;-68
2022/05/19 08:55:14;;;;;;;4.65;2.67;;;;;;;25.27;42.98;101310.28;5986208;28;20042;-68
2022/05/19 08:58:44;;;;;;;4.38;2.72;;;;;;;25.64;42.17;101298.34;5981165;28;20476;-67
2022/05/19 09:01:46;;;;;;;5.00;2.85;;;;;;;25.20;43.00;101294.06;5980223;28;20028;-67
2022/05/19 09:05:18;;;;;;;6.40;2.90;;;;;;;24.91;43.93;101304.88;5981549;28;20047;-67
2022/05/19 09:08:39;;;;;;;4.60;2.75;;;;;;;25.55;44.32;101307.84;5970627;28;20031;-67
2022/05/19 09:11:45;;;;;;;6.55;2.67;;;;;;;25.76;42.89;101293.78;5977770;28;20031;-67
2022/05/19 09:14:40;;;;;;;3.60;2.30;;;;;;;25.90;41.67;101289.78;5981589;28;20038;-67
2022/05/19 09:17:40;;;;;;;4.65;2.63;;;;;;;26.37;41.23;101285.28;5981408;28;20431;-68
2022/05/19 09:20:41;;;;;;;5.78;2.85;;;;;;;26.38;41.03;101286.94;5985269;28;20106;-68
2022/05/19 09:23:36;;;;;;;6.13;2.92;;;;;;;25.97;40.94;101285.09;5980472;29;20035;-67
2022/05/19 09:26:52;;;;;;;6.85;2.95;;;;;;;26.36;40.94;101280.09;5982081;28;20090;-68
2022/05/19 09:29:49;;;;;;;5.15;3.00;;;;;;;26.48;40.42;101270.00;5976150;28;20126;-68
2022/05/19 09:32:51;;;;;;;6.95;3.17;;;;;;;26.96;39.95;101262.41;5980672;28;20050;-68
2022/05/19 09:35:52;;;;;;;4.35;3.00;;;;;;;27.22;38.44;101265.66;5980282;28;20062;-68
2022/05/19 09:38:50;;;;;;;5.07;2.78;;;;;;;26.75;39.14;101265.75;5978763;28;20062;-68
2022/05/19 09:41:48;;;;;;;9.13;2.92;;;;;;;26.86;39.36;101262.19;5973376;28;20035;-67
2022/05/19 09:44:51;;;;;;;3.75;2.40;;;;;;;26.95;39.09;101255.34;5975867;28;20062;-67
2022/05/19 09:47:49;;;;;;;5.47;2.83;;;;;;;27.09;38.42;101239.53;5980817;28;20547;-67
2022/05/19 09:50:50;;;;;;;5.38;2.53;;;;;;;27.01;38.87;101254.38;5988688;28;20102;-68
2022/05/19 09:53:52;;;;;;;6.25;2.40;;;;;;;27.17;39.25;101242.72;5977599;28;20031;-67
2022/05/19 09:56:50;;;;;;;6.82;2.90;;;;;;;26.98;38.04;101237.69;5981297;28;20039;-68
2022/05/19 09:59:50;;;;;;;7.00;2.75;;;;;;;27.37;38.85;101236.81;5984067;28;20082;-67
2022/05/19 10:02:50;;;;;;;6.45;2.78;;;;;;;27.37;36.81;101230.56;5986951;28;20042;-68
2022/05/19 10:05:50;;;;;;;5.55;2.55;;;;;;;26.76;38.88;101232.03;5979078;28;20028;-67
2022/05/19 10:08:45;;;;;;;4.53;2.83;;;;;;;26.90;38.63;101225.28;5982605;28;20031;-68
2022/05/19 10:11:54;;;;;;;3.73;2.47;;;;;;;26.81;38.72;101225.88;5978911;28;20055;-68
2022/05/19 10:14:57;;;;;;;5.35;2.80;;;;;;;27.57;36.78;101209.16;5975000;28;20337;-68
2022/05/19 10:18:01;;;;;;;5.45;2.85;;;;;;;27.40;37.69;101205.53;5978504;28;20095;-68
2022/05/19 10:21:11;;;;;;;4.85;2.40;;;;;;;27.41;36.97;101209.94;5979604;28;20110;-67
2022/05/19 10:24:23;;;;;;;4.00;2.28;;;;;;;27.42;37.66;101217.84;5983113;28;20031;-68
2022/05/19 10:31:30;;;;;;;3.42;2.42;;;;;;;27.66;35.71;101191.31;5985645;28;20137;-67
2022/05/19 10:34:52;;;;;;;6.18;2.63;;;;;;;27.72;35.88;101201.25;5978487;28;20042;-68
2022/05/19 10:38:03;;;;;;;4.35;2.33;;;;;;;28.28;34.83;101198.34;5978618;28;20034;-68
2022/05/19 10:41:07;;;;;;;7.20;2.80;;;;;;;28.19;34.82;101197.09;5994285;28;20459;-68
2022/05/19 10:44:12;;;;;;;5.65;2.50;;;;;;;28.36;35.06;101186.16;5980210;28;20479;-68
2022/05/19 10:47:19;;;;;;;5.05;2.45;;;;;;;28.30;34.77;101196.19;5978495;29;20043;-68
2022/05/19 10:50:30;;;;;;;4.40;2.25;;;;;;;27.78;35.13;101189.34;5977820;29;20039;-68
2022/05/19 10:53:54;;;;;;;5.38;2.33;;;;;;;28.13;35.02;101187.19;5983708;28;20063;-68
2022/05/19 10:57:18;;;;;;;4.47;2.42;;;;;;;28.10;35.46;101181.44;5978619;29;20035;-68
2022/05/19 11:00:15;;;;;;;7.30;2.50;;;;;;;28.12;34.98;101171.09;5970815;28;20043;-69
2022/05/19 11:03:51;;;;;;;6.32;2.65;;;;;;;27.69;35.06;101169.03;5974425;28;20503;-68
2022/05/19 11:07:02;;;;;;;3.58;2.30;;;;;;;27.83;35.29;101150.44;5981033;28;20035;-68
2022/05/19 11:10:33;;;;;;;7.55;2.83;;;;;;;28.11;35.23;101139.41;5977869;28;20558;-67
2022/05/19 11:13:31;;;;;;;5.97;2.40;;;;;;;28.62;34.90;101135.47;5981389;28;20058;-68
2022/05/19 11:16:43;;;;;;;6.40;2.15;;;;;;;29.05;33.52;101132.72;5978946;28;20035;-68
2022/05/19 11:19:46;;;;;;;5.57;2.20;;;;;;;28.83;34.17;101138.22;5977844;28;20035;-68
2022/05/19 11:22:42;;;;;;;4.60;2.60;;;;;;;29.18;33.57;101135.03;5982789;28;20069;-68
2022/05/19 11:29:08;;;;;;;4.15;2.25;;;;;;;28.75;34.50;101135.13;5978802;28;20039;-68
2022/05/19 11:32:15;;;;;;;4.97;2.60;;;;;;;29.27;34.18;101121.75;5980939;28;20383;-68
2022/05/19 11:35:31;;;;;;;6.07;2.40;;;;;;;29.73;33.84;101101.09;5980802;28;20562;-66
2022/05/19 11:38:33;;;;;;;6.25;2.55;;;;;;;29.20;33.61;101097.34;5979780;28;20095;-67
2022/05/19 11:41:31;;;;;;;3.70;2.42;;;;;;;29.77;32.58;101091.25;5989585;28;20042;-65
2022/05/19 11:44:33;;;;;;;5.50;2.65;;;;;;;29.57;33.00;101094.66;5977828;28;20040;-68
2022/05/19 11:58:04;;;;;;;5.70;2.47;;;;;;;28.57;34.49;101075.34;5992396;28;20111;-66
2022/05/19 12:01:03;;;;;;;4.53;2.65;;;;;;;29.17;34.05;101064.22;5976540;28;20039;-68
2022/05/19 12:04:13;;;;;;;4.75;2.55;;;;;;;28.80;34.61;101055.97;5978651;28;20042;-68
2022/05/19 12:07:15;;;;;;;3.58;2.20;;;;;;;28.86;33.36;101050.28;5977523;28;20031;-68
2022/05/19 12:10:15;;;;;;;7.18;2.47;;;;;;;28.84;33.77;101046.16;5997775;28;20471;-68
2022/05/19 12:13:11;;;;;;;6.43;2.92;;;;;;;29.17;34.11;101035.00;5982241;28;20396;-68
2022/05/19 12:16:13;;;;;;;3.13;2.15;;;;;;;29.02;33.42;101040.34;5978532;28;20467;-68
2022/05/19 12:19:10;;;;;;;3.97;2.10;;;;;;;28.85;33.65;101031.44;5979685;28;20170;-68
2022/05/19 12:22:23;;;;;;;3.88;2.17;;;;;;;28.91;33.20;101019.50;5977714;28;20106;-68
2022/05/19 12:25:30;;;;;;;4.00;2.15;;;;;;;29.45;32.40;101026.53;5987089;28;20038;-69
2022/05/19 12:28:29;;;;;;;5.78;1.80;;;;;;;29.20;32.87;101017.25;5978434;28;20131;-69
2022/05/19 12:34:56;;;;;;;3.22;2.17;;;;;;;29.16;32.11;101022.41;5977318;28;20039;-68
2022/05/19 12:37:52;;;;;;;5.22;1.90;;;;;;;29.08;32.09;101022.91;5964811;28;20047;-68
2022/05/19 12:40:56;;;;;;;5.70;2.20;;;;;;;28.57;32.56;101012.56;5974934;28;20027;-68
2022/05/19 12:43:53;;;;;;;3.58;2.13;;;;;;;29.21;32.48;101032.59;5980809;28;20269;-68
2022/05/19 12:46:56;;;;;;;4.22;2.20;;;;;;;29.50;31.83;101026.56;5987883;28;20043;-69
2022/05/19 12:50:01;;;;;;;6.22;2.05;;;;;;;29.74;31.28;101032.44;5982631;28;20043;-68
2022/05/19 12:53:09;;;;;;;7.00;2.40;;;;;;;29.17;31.92;101018.63;5983297;28;20054;-68
2022/05/19 12:56:04;;;;;;;5.10;2.10;;;;;;;29.35;31.44;101026.44;5987426;28;20027;-68
2022/05/19 12:59:03;;;;;;;10.10;2.13;;;;;;;28.77;32.38;101004.59;5986750;28;20062;-67
2022/05/19 13:02:02;;;;;;;8.35;2.40;;;;;;;28.66;32.51;101011.88;5981957;28;20037;-69
2022/05/19 13:05:01;;;;;;;4.88;2.22;;;;;;;28.74;32.31;101010.59;5982048;28;20036;-68
2022/05/19 13:08:12;;;;;;;;;;;;;;;28.18;33.04;101015.38;5986731;28;21652;-68
2022/05/19 13:11:11;;;;;;;;;;;;;;;29.12;33.71;101015.84;5982013;28;19914;-68
2022/05/19 13:14:12;;;;;;;2.38;1.60;;;;;;;29.28;32.84;100995.78;5981023;28;19914;-68
2022/05/19 13:17:12;;;;;;;6.07;2.10;;;;;;;29.93;30.86;100994.53;5982824;28;20047;-68
2022/05/19 13:20:18;;;;;;;4.30;1.90;;;;;;;29.39;31.48;101004.88;5984610;28;20055;-68
2022/05/19 13:23:27;;;;;;;3.13;2.00;;;;;;;29.43;31.75;100995.88;5981723;28;20046;-68
2022/05/19 13:26:28;;;;;;;7.72;2.22;;;;;;;29.14;32.72;100997.28;5980894;28;20126;-68
2022/05/19 13:32:44;;;;;;;4.60;1.73;;;;;;;29.86;31.70;100966.63;5985107;28;20038;-67
2022/05/19 13:35:40;;;;;;;3.75;1.85;;;;;;;29.96;30.56;100972.13;5980303;28;20027;-65
2022/05/19 13:38:35;;;;;;;3.33;1.80;;;;;;;29.52;30.85;100975.16;5982580;28;20038;-68
2022/05/19 13:41:32;;;;;;;4.03;2.00;;;;;;;29.67;30.58;100990.84;5989556;28;20035;-68
2022/05/19 13:44:31;;;;;;;5.15;1.70;;;;;;;29.36;30.83;100978.88;5988138;28;20030;-68
2022/05/19 13:47:28;;;;;;;6.13;1.80;;;;;;;29.20;30.33;100979.84;5980654;28;20118;-68
2022/05/19 13:50:31;;;;;;;3.40;1.45;;;;;;;28.85;31.11;100982.28;5980323;28;20042;-68
2022/05/19 13:53:27;;;;;;;3.42;1.95;;;;;;;29.33;30.43;100964.91;5981726;28;20043;-68
2022/05/19 13:56:36;;;;;;;3.35;1.80;;;;;;;29.84;30.16;100958.66;5986949;28;20411;-68
2022/05/19 13:59:32;;;;;;;4.50;1.75;;;;;;;29.81;29.67;100964.69;5991855;28;20039;-69
2022/05/19 14:02:34;;;;;;;4.38;1.80;;;;;;;29.69;29.50;100955.00;5980312;28;20055;-69
2022/05/19 14:05:32;;;;;;;5.07;1.65;;;;;;;29.67;28.81;100952.56;5991207;28;20055;-68
2022/05/19 14:08:29;;;;;;;2.67;1.45;;;;;;;30.03;29.13;100945.34;5979813;28;20127;-69
2022/05/19 14:11:24;;;;;;;5.15;1.63;;;;;;;29.95;29.45;100943.13;5979804;28;20039;-66
2022/05/19 14:14:23;;;;;;;5.07;1.90;;;;;;;30.71;29.81;100946.06;5981301;28;20043;-68
2022/05/19 14:17:19;;;;;;;3.25;1.85;;;;;;;30.18;30.61;100939.09;5980944;28;20047;-68
2022/05/19 14:20:19;;;;;;;4.13;1.80;;;;;;;29.81;30.15;100931.88;5980020;28;20045;-68
2022/05/19 14:23:19;;;;;;;5.68;1.77;;;;;;;29.17;30.62;100935.81;6015366;28;20042;-68